PWSweather.com
Personal Weather Stations
Station Observations
ILOMBARD30
LodiIT 26900

LodiIT 26900

Lat: 45.2993, Lon: 9.5207

Elevation: 255

Station Type: Davis Vantege Pro2 Plus 24h

http://www.meteo-iw2gob.it

High Low Average
Temperature 66.1°F18.9°C 43.4°F6.3°C 54.2°F12.3°C
Dew Point 47.6°F8.7°C 39.6°F4.2°C 43.2°F6.2°C
Winds 9.2 mph 14.8 kmh Calm Calm 4.0 mph WSW6.4 kmh WSW
Wind Gusts 12.7 mph20.4 kmh -- 5.0 mph8.0 kmh
Humidity 88% 43% 68%
Pressure 30.16 in1021.3 mb 30.05 in1017.6 mb -
Precipitation 0.00 in0.0 mm - -
Hour Temp Dew Point Humidity Winds Wind Gusts Pressure Precip Precip Rate Daily Precip Total
12:00 AM 49.8°F9.9°C 42.5°F5.8°C 76% 2.3 mph NW3.7 kmh NW 3.5 mph5.6 kmh 30.09 in1019.0 mb - 0.00 in0.0 mm 0.00 in0.0 mm
12:05 AM 49.8°F9.9°C 42.9°F6.1°C 77% 2.3 mph NW3.7 kmh NW 3.5 mph5.6 kmh 30.09 in1019.0 mb - 0.00 in0.0 mm 0.00 in0.0 mm
12:10 AM 49.8°F9.9°C 42.9°F6.1°C 77% 2.3 mph NW3.7 kmh NW 3.5 mph5.6 kmh 30.10 in1019.3 mb - 0.00 in0.0 mm 0.00 in0.0 mm
12:15 AM 49.8°F9.9°C 42.5°F5.8°C 76% 1.2 mph NW1.9 kmh NW 2.3 mph3.7 kmh 30.10 in1019.3 mb - 0.00 in0.0 mm 0.00 in0.0 mm
12:20 AM 49.8°F9.9°C 42.5°F5.8°C 76% 1.2 mph NW1.9 kmh NW 2.3 mph3.7 kmh 30.11 in1019.6 mb - 0.00 in0.0 mm 0.00 in0.0 mm
12:25 AM 49.7°F9.8°C 42.4°F5.8°C 76% 1.2 mph NW1.9 kmh NW 2.3 mph3.7 kmh 30.10 in1019.3 mb - 0.00 in0.0 mm 0.00 in0.0 mm
12:30 AM 49.6°F9.8°C 42.7°F5.9°C 77% Calm Calm 1.2 mph1.9 kmh 30.11 in1019.6 mb - 0.00 in0.0 mm 0.00 in0.0 mm
12:35 AM 49.5°F9.7°C 42.6°F5.9°C 77% Calm Calm -- 30.11 in1019.6 mb - 0.00 in0.0 mm 0.00 in0.0 mm
12:40 AM 49.4°F9.7°C 42.5°F5.8°C 77% Calm Calm -- 30.11 in1019.6 mb - 0.00 in0.0 mm 0.00 in0.0 mm
12:45 AM 49.3°F9.6°C 42.7°F5.9°C 78% Calm Calm -- 30.10 in1019.3 mb - 0.00 in0.0 mm 0.00 in0.0 mm
12:50 AM 49.2°F9.6°C 42.6°F5.9°C 78% Calm Calm -- 30.10 in1019.3 mb - 0.00 in0.0 mm 0.00 in0.0 mm
12:55 AM 49.1°F9.5°C 42.5°F5.8°C 78% Calm Calm -- 30.10 in1019.3 mb - 0.00 in0.0 mm 0.00 in0.0 mm
01:00 AM 49.0°F9.4°C 42.4°F5.8°C 78% Calm Calm -- 30.10 in1019.3 mb - 0.00 in0.0 mm 0.00 in0.0 mm
01:05 AM 48.9°F9.4°C 42.4°F5.8°C 78% Calm Calm -- 30.10 in1019.3 mb - 0.00 in0.0 mm 0.00 in0.0 mm
01:10 AM 48.9°F9.4°C 42.3°F5.7°C 78% Calm Calm -- 30.11 in1019.6 mb - 0.00 in0.0 mm 0.00 in0.0 mm
01:15 AM 48.8°F9.3°C 42.2°F5.7°C 78% Calm Calm -- 30.11 in1019.6 mb - 0.00 in0.0 mm 0.00 in0.0 mm
01:20 AM 48.7°F9.3°C 42.1°F5.6°C 78% Calm Calm -- 30.11 in1019.6 mb - 0.00 in0.0 mm 0.00 in0.0 mm
01:25 AM 48.6°F9.2°C 42.0°F5.6°C 78% Calm Calm -- 30.10 in1019.3 mb - 0.00 in0.0 mm 0.00 in0.0 mm
01:30 AM 48.6°F9.2°C 42.4°F5.8°C 79% Calm Calm -- 30.11 in1019.6 mb - 0.00 in0.0 mm 0.00 in0.0 mm
01:35 AM 48.6°F9.2°C 42.4°F5.8°C 79% Calm Calm -- 30.11 in1019.6 mb - 0.00 in0.0 mm 0.00 in0.0 mm
01:40 AM 48.5°F9.2°C 42.3°F5.7°C 79% Calm Calm -- 30.11 in1019.6 mb - 0.00 in0.0 mm 0.00 in0.0 mm
01:45 AM 48.5°F9.2°C 42.0°F5.6°C 78% Calm Calm -- 30.11 in1019.6 mb - 0.00 in0.0 mm 0.00 in0.0 mm
01:50 AM 48.4°F9.1°C 41.9°F5.5°C 78% Calm Calm -- 30.10 in1019.3 mb - 0.00 in0.0 mm 0.00 in0.0 mm
01:55 AM 48.4°F9.1°C 42.2°F5.7°C 79% Calm Calm -- 30.10 in1019.3 mb - 0.00 in0.0 mm 0.00 in0.0 mm
02:00 AM 48.5°F9.2°C 42.3°F5.7°C 79% Calm Calm -- 30.10 in1019.3 mb - 0.00 in0.0 mm 0.00 in0.0 mm
02:05 AM 48.6°F9.2°C 42.7°F5.9°C 80% Calm Calm -- 30.10 in1019.3 mb - 0.00 in0.0 mm 0.00 in0.0 mm
02:10 AM 48.7°F9.3°C 42.5°F5.8°C 79% Calm Calm -- 30.10 in1019.3 mb - 0.00 in0.0 mm 0.00 in0.0 mm
02:15 AM 48.8°F9.3°C 42.6°F5.9°C 79% Calm Calm -- 30.10 in1019.3 mb - 0.00 in0.0 mm 0.00 in0.0 mm
02:20 AM 48.9°F9.4°C 42.7°F5.9°C 79% Calm Calm -- 30.10 in1019.3 mb - 0.00 in0.0 mm 0.00 in0.0 mm
02:25 AM 49.0°F9.4°C 42.8°F6.0°C 79% Calm Calm -- 30.10 in1019.3 mb - 0.00 in0.0 mm 0.00 in0.0 mm
02:30 AM 49.0°F9.4°C 42.4°F5.8°C 78% 2.3 mph WSW3.7 kmh WSW 3.5 mph5.6 kmh 30.10 in1019.3 mb - 0.00 in0.0 mm 0.00 in0.0 mm
02:35 AM 48.5°F9.2°C 42.0°F5.6°C 78% 2.3 mph SW3.7 kmh SW 3.5 mph5.6 kmh 30.10 in1019.3 mb - 0.00 in0.0 mm 0.00 in0.0 mm
02:40 AM 47.9°F8.8°C 41.4°F5.2°C 78% 2.3 mph SSW3.7 kmh SSW 3.5 mph5.6 kmh 30.10 in1019.3 mb - 0.00 in0.0 mm 0.00 in0.0 mm
02:45 AM 47.4°F8.6°C 41.2°F5.1°C 79% 2.3 mph SSW3.7 kmh SSW 3.5 mph5.6 kmh 30.10 in1019.3 mb - 0.00 in0.0 mm 0.00 in0.0 mm
02:50 AM 47.0°F8.3°C 41.1°F5.1°C 80% 2.3 mph SSW3.7 kmh SSW 3.5 mph5.6 kmh 30.10 in1019.3 mb - 0.00 in0.0 mm 0.00 in0.0 mm
02:55 AM 46.6°F8.1°C 40.8°F4.9°C 80% 1.2 mph SSW1.9 kmh SSW 2.3 mph3.7 kmh 30.10 in1019.3 mb - 0.00 in0.0 mm 0.00 in0.0 mm
03:00 AM 46.3°F7.9°C 40.8°F4.9°C 81% 1.2 mph SSW1.9 kmh SSW 2.3 mph3.7 kmh 30.11 in1019.6 mb - 0.00 in0.0 mm 0.00 in0.0 mm
03:05 AM 46.1°F7.8°C 40.6°F4.8°C 81% 1.2 mph SSW1.9 kmh SSW 2.3 mph3.7 kmh 30.10 in1019.3 mb - 0.00 in0.0 mm 0.00 in0.0 mm
03:10 AM 46.0°F7.8°C 40.8°F4.9°C 82% Calm Calm 1.2 mph1.9 kmh 30.10 in1019.3 mb - 0.00 in0.0 mm 0.00 in0.0 mm
03:15 AM 45.8°F7.7°C 40.6°F4.8°C 82% Calm Calm -- 30.10 in1019.3 mb - 0.00 in0.0 mm 0.00 in0.0 mm
03:20 AM 45.6°F7.6°C 40.4°F4.7°C 82% Calm Calm -- 30.10 in1019.3 mb - 0.00 in0.0 mm 0.00 in0.0 mm
03:25 AM 45.5°F7.5°C 40.3°F4.6°C 82% 1.2 mph SSW1.9 kmh SSW 1.2 mph1.9 kmh 30.10 in1019.3 mb - 0.00 in0.0 mm 0.00 in0.0 mm
03:30 AM 45.4°F7.4°C 40.5°F4.7°C 83% Calm Calm -- 30.10 in1019.3 mb - 0.00 in0.0 mm 0.00 in0.0 mm
03:35 AM 45.3°F7.4°C 40.4°F4.7°C 83% Calm Calm -- 30.10 in1019.3 mb - 0.00 in0.0 mm 0.00 in0.0 mm
03:40 AM 45.2°F7.3°C 40.3°F4.6°C 83% Calm Calm -- 30.09 in1019.0 mb - 0.00 in0.0 mm 0.00 in0.0 mm
03:45 AM 45.0°F7.2°C 40.5°F4.7°C 84% 2.3 mph SSW3.7 kmh SSW 3.5 mph5.6 kmh 30.09 in1019.0 mb - 0.00 in0.0 mm 0.00 in0.0 mm
03:50 AM 44.9°F7.2°C 40.3°F4.6°C 84% Calm Calm -- 30.10 in1019.3 mb - 0.00 in0.0 mm 0.00 in0.0 mm
03:55 AM 44.8°F7.1°C 40.3°F4.6°C 84% Calm Calm -- 30.10 in1019.3 mb - 0.00 in0.0 mm 0.00 in0.0 mm
04:00 AM 44.7°F7.1°C 40.2°F4.6°C 84% Calm Calm -- 30.09 in1019.0 mb - 0.00 in0.0 mm 0.00 in0.0 mm
04:05 AM 44.5°F6.9°C 40.0°F4.4°C 84% Calm Calm -- 30.09 in1019.0 mb - 0.00 in0.0 mm 0.00 in0.0 mm
04:10 AM 44.4°F6.9°C 39.6°F4.2°C 83% Calm Calm -- 30.09 in1019.0 mb - 0.00 in0.0 mm 0.00 in0.0 mm
04:15 AM 44.3°F6.8°C 39.8°F4.3°C 84% Calm Calm -- 30.10 in1019.3 mb - 0.00 in0.0 mm 0.00 in0.0 mm
04:20 AM 44.2°F6.8°C 39.6°F4.2°C 84% 1.2 mph SSW1.9 kmh SSW 2.3 mph3.7 kmh 30.10 in1019.3 mb - 0.00 in0.0 mm 0.00 in0.0 mm
04:25 AM 44.1°F6.7°C 39.9°F4.4°C 85% 1.2 mph SSW1.9 kmh SSW 2.3 mph3.7 kmh 30.10 in1019.3 mb - 0.00 in0.0 mm 0.00 in0.0 mm
04:30 AM 44.1°F6.7°C 39.9°F4.4°C 85% 1.2 mph SSW1.9 kmh SSW 2.3 mph3.7 kmh 30.09 in1019.0 mb - 0.00 in0.0 mm 0.00 in0.0 mm
04:35 AM 44.1°F6.7°C 39.9°F4.4°C 85% Calm Calm 1.2 mph1.9 kmh 30.09 in1019.0 mb - 0.00 in0.0 mm 0.00 in0.0 mm
04:40 AM 44.1°F6.7°C 39.9°F4.4°C 85% Calm Calm -- 30.10 in1019.3 mb - 0.00 in0.0 mm 0.00 in0.0 mm
04:45 AM 44.1°F6.7°C 39.9°F4.4°C 85% Calm Calm -- 30.09 in1019.0 mb - 0.00 in0.0 mm 0.00 in0.0 mm
04:50 AM 44.1°F6.7°C 39.9°F4.4°C 85% Calm Calm -- 30.09 in1019.0 mb - 0.00 in0.0 mm 0.00 in0.0 mm
04:55 AM 44.0°F6.7°C 39.8°F4.3°C 85% Calm Calm -- 30.10 in1019.3 mb - 0.00 in0.0 mm 0.00 in0.0 mm
05:00 AM 44.0°F6.7°C 40.1°F4.5°C 86% Calm Calm -- 30.09 in1019.0 mb - 0.00 in0.0 mm 0.00 in0.0 mm
05:05 AM 44.0°F6.7°C 40.1°F4.5°C 86% Calm Calm 2.3 mph3.7 kmh 30.09 in1019.0 mb - 0.00 in0.0 mm 0.00 in0.0 mm
05:10 AM 44.0°F6.7°C 40.1°F4.5°C 86% 1.2 mph SSW1.9 kmh SSW 2.3 mph3.7 kmh 30.10 in1019.3 mb - 0.00 in0.0 mm 0.00 in0.0 mm
05:15 AM 43.9°F6.6°C 40.0°F4.4°C 86% 1.2 mph SSW1.9 kmh SSW 2.3 mph3.7 kmh 30.10 in1019.3 mb - 0.00 in0.0 mm 0.00 in0.0 mm
05:20 AM 43.9°F6.6°C 40.0°F4.4°C 86% Calm Calm 2.3 mph3.7 kmh 30.10 in1019.3 mb - 0.00 in0.0 mm 0.00 in0.0 mm
05:25 AM 43.9°F6.6°C 40.0°F4.4°C 86% 1.2 mph SSW1.9 kmh SSW 1.2 mph1.9 kmh 30.11 in1019.6 mb - 0.00 in0.0 mm 0.00 in0.0 mm
05:30 AM 43.8°F6.6°C 39.9°F4.4°C 86% 1.2 mph SSW1.9 kmh SSW 2.3 mph3.7 kmh 30.10 in1019.3 mb - 0.00 in0.0 mm 0.00 in0.0 mm
05:35 AM 43.8°F6.6°C 39.9°F4.4°C 86% 1.2 mph SSW1.9 kmh SSW 2.3 mph3.7 kmh 30.11 in1019.6 mb - 0.00 in0.0 mm 0.00 in0.0 mm
05:40 AM 43.8°F6.6°C 39.9°F4.4°C 86% 2.3 mph SSW3.7 kmh SSW 3.5 mph5.6 kmh 30.11 in1019.6 mb - 0.00 in0.0 mm 0.00 in0.0 mm
05:45 AM 43.7°F6.5°C 39.8°F4.3°C 86% 2.3 mph SSW3.7 kmh SSW 2.3 mph3.7 kmh 30.11 in1019.6 mb - 0.00 in0.0 mm 0.00 in0.0 mm
05:50 AM 43.7°F6.5°C 40.1°F4.5°C 87% 2.3 mph SSW3.7 kmh SSW 2.3 mph3.7 kmh 30.11 in1019.6 mb - 0.00 in0.0 mm 0.00 in0.0 mm
05:55 AM 43.7°F6.5°C 40.1°F4.5°C 87% 1.2 mph SSW1.9 kmh SSW 2.3 mph3.7 kmh 30.11 in1019.6 mb - 0.00 in0.0 mm 0.00 in0.0 mm
06:00 AM 43.6°F6.4°C 40.0°F4.4°C 87% 1.2 mph SW1.9 kmh SW 3.5 mph5.6 kmh 30.10 in1019.3 mb - 0.00 in0.0 mm 0.00 in0.0 mm
06:05 AM 43.7°F6.5°C 40.1°F4.5°C 87% 2.3 mph SW3.7 kmh SW 3.5 mph5.6 kmh 30.10 in1019.3 mb - 0.00 in0.0 mm 0.00 in0.0 mm
06:10 AM 43.7°F6.5°C 40.4°F4.7°C 88% 2.3 mph SW3.7 kmh SW 3.5 mph5.6 kmh 30.10 in1019.3 mb - 0.00 in0.0 mm 0.00 in0.0 mm
06:15 AM 43.7°F6.5°C 40.4°F4.7°C 88% 3.5 mph SW5.6 kmh SW 3.5 mph5.6 kmh 30.10 in1019.3 mb - 0.00 in0.0 mm 0.00 in0.0 mm
06:20 AM 43.8°F6.6°C 40.4°F4.7°C 88% 3.5 mph SW5.6 kmh SW 3.5 mph5.6 kmh 30.10 in1019.3 mb - 0.00 in0.0 mm 0.00 in0.0 mm
06:25 AM 43.8°F6.6°C 40.5°F4.7°C 88% 2.3 mph SW3.7 kmh SW 3.5 mph5.6 kmh 30.10 in1019.3 mb - 0.00 in0.0 mm 0.00 in0.0 mm
06:30 AM 43.8°F6.6°C 40.5°F4.7°C 88% 3.5 mph SW5.6 kmh SW 4.6 mph7.4 kmh 30.10 in1019.3 mb - 0.00 in0.0 mm 0.00 in0.0 mm
06:35 AM 43.8°F6.6°C 40.5°F4.7°C 88% 3.5 mph SW5.6 kmh SW 4.6 mph7.4 kmh 30.10 in1019.3 mb - 0.00 in0.0 mm 0.00 in0.0 mm
06:40 AM 43.8°F6.6°C 40.5°F4.7°C 88% 4.6 mph SW7.4 kmh SW 4.6 mph7.4 kmh 30.11 in1019.6 mb - 0.00 in0.0 mm 0.00 in0.0 mm
06:45 AM 43.8°F6.6°C 40.5°F4.7°C 88% 2.3 mph SW3.7 kmh SW 3.5 mph5.6 kmh 30.11 in1019.6 mb - 0.00 in0.0 mm 0.00 in0.0 mm
06:50 AM 43.8°F6.6°C 40.5°F4.7°C 88% 2.3 mph SW3.7 kmh SW 3.5 mph5.6 kmh 30.11 in1019.6 mb - 0.00 in0.0 mm 0.00 in0.0 mm
06:55 AM 43.8°F6.6°C 40.5°F4.7°C 88% 1.2 mph SW1.9 kmh SW 2.3 mph3.7 kmh 30.12 in1020.0 mb - 0.00 in0.0 mm 0.00 in0.0 mm
07:00 AM 43.7°F6.5°C 40.4°F4.7°C 88% Calm Calm -- 30.12 in1020.0 mb - 0.00 in0.0 mm 0.00 in0.0 mm
07:05 AM 43.6°F6.4°C 40.3°F4.6°C 88% Calm Calm -- 30.12 in1020.0 mb - 0.00 in0.0 mm 0.00 in0.0 mm
07:10 AM 43.5°F6.4°C 40.2°F4.6°C 88% Calm Calm -- 30.12 in1020.0 mb - 0.00 in0.0 mm 0.00 in0.0 mm
07:15 AM 43.4°F6.3°C 40.1°F4.5°C 88% 2.3 mph SW3.7 kmh SW 3.5 mph5.6 kmh 30.12 in1020.0 mb - 0.00 in0.0 mm 0.00 in0.0 mm
07:20 AM 43.4°F6.3°C 40.1°F4.5°C 88% 3.5 mph SW5.6 kmh SW 3.5 mph5.6 kmh 30.12 in1020.0 mb - 0.00 in0.0 mm 0.00 in0.0 mm
07:25 AM 43.5°F6.4°C 40.2°F4.6°C 88% 3.5 mph SW5.6 kmh SW 4.6 mph7.4 kmh 30.12 in1020.0 mb - 0.00 in0.0 mm 0.00 in0.0 mm
07:30 AM 43.6°F6.4°C 40.3°F4.6°C 88% 2.3 mph SW3.7 kmh SW 3.5 mph5.6 kmh 30.12 in1020.0 mb - 0.00 in0.0 mm 0.00 in0.0 mm
07:35 AM 43.7°F6.5°C 40.4°F4.7°C 88% 2.3 mph SW3.7 kmh SW 3.5 mph5.6 kmh 30.12 in1020.0 mb - 0.00 in0.0 mm 0.00 in0.0 mm
07:40 AM 43.8°F6.6°C 40.5°F4.7°C 88% 4.6 mph SW7.4 kmh SW 5.8 mph9.3 kmh 30.13 in1020.3 mb - 0.00 in0.0 mm 0.00 in0.0 mm
07:45 AM 43.8°F6.6°C 40.5°F4.7°C 88% 4.6 mph SW7.4 kmh SW 4.6 mph7.4 kmh 30.13 in1020.3 mb - 0.00 in0.0 mm 0.00 in0.0 mm
07:50 AM 44.0°F6.7°C 40.7°F4.8°C 88% 3.5 mph SW5.6 kmh SW 4.6 mph7.4 kmh 30.13 in1020.3 mb - 0.00 in0.0 mm 0.00 in0.0 mm
07:55 AM 44.2°F6.8°C 40.9°F4.9°C 88% 4.6 mph SW7.4 kmh SW 4.6 mph7.4 kmh 30.14 in1020.7 mb - 0.00 in0.0 mm 0.00 in0.0 mm
08:00 AM 44.6°F7.0°C 41.3°F5.2°C 88% 2.3 mph SW3.7 kmh SW 4.6 mph7.4 kmh 30.14 in1020.7 mb - 0.00 in0.0 mm 0.00 in0.0 mm
08:05 AM 45.1°F7.3°C 41.8°F5.4°C 88% 4.6 mph SW7.4 kmh SW 5.8 mph9.3 kmh 30.14 in1020.7 mb - 0.00 in0.0 mm 0.00 in0.0 mm
08:10 AM 45.6°F7.6°C 41.9°F5.5°C 87% 2.3 mph SW3.7 kmh SW 3.5 mph5.6 kmh 30.14 in1020.7 mb - 0.00 in0.0 mm 0.00 in0.0 mm
08:15 AM 46.0°F7.8°C 42.3°F5.7°C 87% 1.2 mph SW1.9 kmh SW 3.5 mph5.6 kmh 30.14 in1020.7 mb - 0.00 in0.0 mm 0.00 in0.0 mm
08:20 AM 46.4°F8.0°C 42.5°F5.8°C 86% 2.3 mph SW3.7 kmh SW 3.5 mph5.6 kmh 30.14 in1020.7 mb - 0.00 in0.0 mm 0.00 in0.0 mm
08:25 AM 46.9°F8.3°C 42.6°F5.9°C 85% 1.2 mph WSW1.9 kmh WSW 3.5 mph5.6 kmh 30.14 in1020.7 mb - 0.00 in0.0 mm 0.00 in0.0 mm
08:30 AM 47.3°F8.5°C 43.0°F6.1°C 85% 1.2 mph SW1.9 kmh SW 3.5 mph5.6 kmh 30.15 in1021.0 mb - 0.00 in0.0 mm 0.00 in0.0 mm
08:35 AM 47.8°F8.8°C 43.5°F6.4°C 85% Calm Calm 1.2 mph1.9 kmh 30.15 in1021.0 mb - 0.00 in0.0 mm 0.00 in0.0 mm
08:40 AM 48.4°F9.1°C 44.1°F6.7°C 85% Calm Calm 1.2 mph1.9 kmh 30.15 in1021.0 mb - 0.00 in0.0 mm 0.00 in0.0 mm
08:45 AM 49.1°F9.5°C 44.4°F6.9°C 84% Calm Calm 2.3 mph3.7 kmh 30.15 in1021.0 mb - 0.00 in0.0 mm 0.00 in0.0 mm
08:50 AM 49.7°F9.8°C 44.8°F7.1°C 83% 1.2 mph NE1.9 kmh NE 3.5 mph5.6 kmh 30.15 in1021.0 mb - 0.00 in0.0 mm 0.00 in0.0 mm
08:55 AM 50.3°F10.2°C 45.0°F7.2°C 82% 2.3 mph N3.7 kmh N 3.5 mph5.6 kmh 30.15 in1021.0 mb - 0.00 in0.0 mm 0.00 in0.0 mm
09:00 AM 50.6°F10.3°C 45.0°F7.2°C 81% 1.2 mph N1.9 kmh N 2.3 mph3.7 kmh 30.15 in1021.0 mb - 0.00 in0.0 mm 0.00 in0.0 mm
09:05 AM 50.9°F10.5°C 45.2°F7.3°C 81% 1.2 mph N1.9 kmh N 2.3 mph3.7 kmh 30.16 in1021.3 mb - 0.00 in0.0 mm 0.00 in0.0 mm
09:10 AM 51.2°F10.7°C 45.6°F7.6°C 81% 1.2 mph N1.9 kmh N 2.3 mph3.7 kmh 30.16 in1021.3 mb - 0.00 in0.0 mm 0.00 in0.0 mm
09:15 AM 51.5°F10.8°C 45.5°F7.5°C 80% 1.2 mph NW1.9 kmh NW 2.3 mph3.7 kmh 30.16 in1021.3 mb - 0.00 in0.0 mm 0.00 in0.0 mm
09:20 AM 51.9°F11.1°C 45.6°F7.6°C 79% 2.3 mph SW3.7 kmh SW 3.5 mph5.6 kmh 30.15 in1021.0 mb - 0.00 in0.0 mm 0.00 in0.0 mm
09:25 AM 52.3°F11.3°C 45.6°F7.6°C 78% 2.3 mph W3.7 kmh W 3.5 mph5.6 kmh 30.16 in1021.3 mb - 0.00 in0.0 mm 0.00 in0.0 mm
09:30 AM 52.6°F11.4°C 45.9°F7.7°C 78% 2.3 mph W3.7 kmh W 3.5 mph5.6 kmh 30.16 in1021.3 mb - 0.00 in0.0 mm 0.00 in0.0 mm
09:35 AM 53.0°F11.7°C 46.0°F7.8°C 77% 2.3 mph WSW3.7 kmh WSW 3.5 mph5.6 kmh 30.16 in1021.3 mb - 0.00 in0.0 mm 0.00 in0.0 mm
09:40 AM 53.3°F11.8°C 46.0°F7.8°C 76% 4.6 mph SW7.4 kmh SW 6.9 mph11.1 kmh 30.16 in1021.3 mb - 0.00 in0.0 mm 0.00 in0.0 mm
09:45 AM 53.5°F11.9°C 46.2°F7.9°C 76% 5.8 mph SW9.3 kmh SW 6.9 mph11.1 kmh 30.15 in1021.0 mb - 0.00 in0.0 mm 0.00 in0.0 mm
09:50 AM 53.9°F12.2°C 46.1°F7.8°C 75% 3.5 mph SW5.6 kmh SW 4.6 mph7.4 kmh 30.16 in1021.3 mb - 0.00 in0.0 mm 0.00 in0.0 mm
09:55 AM 54.4°F12.4°C 46.6°F8.1°C 75% 3.5 mph WSW5.6 kmh WSW 3.5 mph5.6 kmh 30.16 in1021.3 mb - 0.00 in0.0 mm 0.00 in0.0 mm
10:00 AM 54.9°F12.7°C 46.7°F8.2°C 74% 2.3 mph SW3.7 kmh SW 3.5 mph5.6 kmh 30.16 in1021.3 mb - 0.00 in0.0 mm 0.00 in0.0 mm
10:05 AM 55.5°F13.1°C 46.6°F8.1°C 72% 2.3 mph WSW3.7 kmh WSW 2.3 mph3.7 kmh 30.15 in1021.0 mb - 0.00 in0.0 mm 0.00 in0.0 mm
10:10 AM 55.9°F13.3°C 46.7°F8.2°C 71% 3.5 mph WSW5.6 kmh WSW 4.6 mph7.4 kmh 30.16 in1021.3 mb - 0.00 in0.0 mm 0.00 in0.0 mm
10:15 AM 56.1°F13.4°C 46.4°F8.0°C 70% 3.5 mph SW5.6 kmh SW 3.5 mph5.6 kmh 30.16 in1021.3 mb - 0.00 in0.0 mm 0.00 in0.0 mm
10:20 AM 56.5°F13.6°C 46.8°F8.2°C 70% 4.6 mph WSW7.4 kmh WSW 5.8 mph9.3 kmh 30.16 in1021.3 mb - 0.00 in0.0 mm 0.00 in0.0 mm
10:25 AM 56.6°F13.7°C 46.5°F8.1°C 69% 3.5 mph WSW5.6 kmh WSW 3.5 mph5.6 kmh 30.16 in1021.3 mb - 0.00 in0.0 mm 0.00 in0.0 mm
10:30 AM 56.8°F13.8°C 46.7°F8.2°C 69% 1.2 mph WSW1.9 kmh WSW 6.9 mph11.1 kmh 30.16 in1021.3 mb - 0.00 in0.0 mm 0.00 in0.0 mm
10:35 AM 56.9°F13.8°C 46.4°F8.0°C 68% 4.6 mph SW7.4 kmh SW 6.9 mph11.1 kmh 30.16 in1021.3 mb - 0.00 in0.0 mm 0.00 in0.0 mm
10:40 AM 57.2°F14.0°C 46.7°F8.2°C 68% 4.6 mph SW7.4 kmh SW 8.1 mph13.0 kmh 30.16 in1021.3 mb - 0.00 in0.0 mm 0.00 in0.0 mm
10:45 AM 57.4°F14.1°C 46.9°F8.3°C 68% 4.6 mph W7.4 kmh W 9.2 mph14.8 kmh 30.16 in1021.3 mb - 0.00 in0.0 mm 0.00 in0.0 mm
10:50 AM 57.3°F14.1°C 46.8°F8.2°C 68% 4.6 mph WSW7.4 kmh WSW 6.9 mph11.1 kmh 30.16 in1021.3 mb - 0.00 in0.0 mm 0.00 in0.0 mm
10:55 AM 57.3°F14.1°C 46.8°F8.2°C 68% 6.9 mph WSW11.1 kmh WSW 9.2 mph14.8 kmh 30.16 in1021.3 mb - 0.00 in0.0 mm 0.00 in0.0 mm
11:00 AM 57.3°F14.1°C 46.8°F8.2°C 68% 5.8 mph W9.3 kmh W 6.9 mph11.1 kmh 30.16 in1021.3 mb - 0.00 in0.0 mm 0.00 in0.0 mm
11:05 AM 57.5°F14.2°C 47.0°F8.3°C 68% 5.8 mph WSW9.3 kmh WSW 6.9 mph11.1 kmh 30.16 in1021.3 mb - 0.00 in0.0 mm 0.00 in0.0 mm
11:10 AM 57.6°F14.2°C 46.7°F8.2°C 67% 4.6 mph WSW7.4 kmh WSW 10.4 mph16.7 kmh 30.16 in1021.3 mb - 0.00 in0.0 mm 0.00 in0.0 mm
11:15 AM 57.7°F14.3°C 46.4°F8.0°C 66% 4.6 mph WSW7.4 kmh WSW 5.8 mph9.3 kmh 30.16 in1021.3 mb - 0.00 in0.0 mm 0.00 in0.0 mm
11:20 AM 57.8°F14.3°C 46.5°F8.1°C 66% 5.8 mph W9.3 kmh W 5.8 mph9.3 kmh 30.16 in1021.3 mb - 0.00 in0.0 mm 0.00 in0.0 mm
11:25 AM 58.0°F14.4°C 46.7°F8.2°C 66% 6.9 mph WNW11.1 kmh WNW 8.1 mph13.0 kmh 30.16 in1021.3 mb - 0.00 in0.0 mm 0.00 in0.0 mm
11:30 AM 58.0°F14.4°C 46.7°F8.2°C 66% 4.6 mph W7.4 kmh W 5.8 mph9.3 kmh 30.16 in1021.3 mb - 0.00 in0.0 mm 0.00 in0.0 mm
11:35 AM 58.4°F14.7°C 46.7°F8.2°C 65% 5.8 mph NW9.3 kmh NW 5.8 mph9.3 kmh 30.16 in1021.3 mb - 0.00 in0.0 mm 0.00 in0.0 mm
11:40 AM 58.5°F14.7°C 46.4°F8.0°C 64% 5.8 mph WSW9.3 kmh WSW 6.9 mph11.1 kmh 30.16 in1021.3 mb - 0.00 in0.0 mm 0.00 in0.0 mm
11:45 AM 58.6°F14.8°C 46.5°F8.1°C 64% 3.5 mph W5.6 kmh W 3.5 mph5.6 kmh 30.16 in1021.3 mb - 0.00 in0.0 mm 0.00 in0.0 mm
11:50 AM 58.8°F14.9°C 47.1°F8.4°C 65% 5.8 mph WNW9.3 kmh WNW 9.2 mph14.8 kmh 30.16 in1021.3 mb - 0.00 in0.0 mm 0.00 in0.0 mm
11:55 AM 58.9°F14.9°C 46.8°F8.2°C 64% 6.9 mph NW11.1 kmh NW 8.1 mph13.0 kmh 30.15 in1021.0 mb - 0.00 in0.0 mm 0.00 in0.0 mm
12:00 PM 59.2°F15.1°C 47.0°F8.3°C 64% 6.9 mph WSW11.1 kmh WSW 10.4 mph16.7 kmh 30.15 in1021.0 mb - 0.00 in0.0 mm 0.00 in0.0 mm
12:05 PM 59.4°F15.2°C 46.8°F8.2°C 63% 3.5 mph W5.6 kmh W 5.8 mph9.3 kmh 30.15 in1021.0 mb - 0.00 in0.0 mm 0.00 in0.0 mm
12:10 PM 59.7°F15.4°C 46.7°F8.2°C 62% 5.8 mph WSW9.3 kmh WSW 11.5 mph18.5 kmh 30.15 in1021.0 mb - 0.00 in0.0 mm 0.00 in0.0 mm
12:15 PM 59.6°F15.3°C 46.6°F8.1°C 62% 6.9 mph WSW11.1 kmh WSW 8.1 mph13.0 kmh 30.15 in1021.0 mb - 0.00 in0.0 mm 0.00 in0.0 mm
12:20 PM 59.7°F15.4°C 47.1°F8.4°C 63% 5.8 mph NW9.3 kmh NW 6.9 mph11.1 kmh 30.15 in1021.0 mb - 0.00 in0.0 mm 0.00 in0.0 mm
12:25 PM 60.0°F15.6°C 46.5°F8.1°C 61% 5.8 mph NW9.3 kmh NW 6.9 mph11.1 kmh 30.15 in1021.0 mb - 0.00 in0.0 mm 0.00 in0.0 mm
12:30 PM 60.2°F15.7°C 46.7°F8.2°C 61% 3.5 mph W5.6 kmh W 4.6 mph7.4 kmh 30.14 in1020.7 mb - 0.00 in0.0 mm 0.00 in0.0 mm
12:35 PM 60.7°F15.9°C 47.2°F8.4°C 61% 4.6 mph WNW7.4 kmh WNW 6.9 mph11.1 kmh 30.15 in1021.0 mb - 0.00 in0.0 mm 0.00 in0.0 mm
12:40 PM 61.2°F16.2°C 47.6°F8.7°C 61% 5.8 mph WNW9.3 kmh WNW 9.2 mph14.8 kmh 30.14 in1020.7 mb - 0.00 in0.0 mm 0.00 in0.0 mm
12:45 PM 61.3°F16.3°C 46.8°F8.2°C 59% 8.1 mph WNW13.0 kmh WNW 10.4 mph16.7 kmh 30.14 in1020.7 mb - 0.00 in0.0 mm 0.00 in0.0 mm
12:50 PM 61.4°F16.3°C 46.9°F8.3°C 59% 4.6 mph W7.4 kmh W 6.9 mph11.1 kmh 30.14 in1020.7 mb - 0.00 in0.0 mm 0.00 in0.0 mm
12:55 PM 61.3°F16.3°C 46.4°F8.0°C 58% 5.8 mph W9.3 kmh W 10.4 mph16.7 kmh 30.13 in1020.3 mb - 0.00 in0.0 mm 0.00 in0.0 mm
01:00 PM 61.4°F16.3°C 46.5°F8.1°C 58% 6.9 mph W11.1 kmh W 9.2 mph14.8 kmh 30.13 in1020.3 mb - 0.00 in0.0 mm 0.00 in0.0 mm
01:05 PM 61.7°F16.5°C 46.8°F8.2°C 58% 5.8 mph WNW9.3 kmh WNW 11.5 mph18.5 kmh 30.13 in1020.3 mb - 0.00 in0.0 mm 0.00 in0.0 mm
01:10 PM 61.7°F16.5°C 46.3°F7.9°C 57% 6.9 mph W11.1 kmh W 11.5 mph18.5 kmh 30.13 in1020.3 mb - 0.00 in0.0 mm 0.00 in0.0 mm
01:15 PM 61.6°F16.4°C 46.7°F8.2°C 58% 4.6 mph NW7.4 kmh NW 6.9 mph11.1 kmh 30.12 in1020.0 mb - 0.00 in0.0 mm 0.00 in0.0 mm
01:20 PM 61.8°F16.6°C 46.9°F8.3°C 58% 6.9 mph NW11.1 kmh NW 12.7 mph20.4 kmh 30.12 in1020.0 mb - 0.00 in0.0 mm 0.00 in0.0 mm
01:25 PM 62.0°F16.7°C 46.1°F7.8°C 56% 6.9 mph WSW11.1 kmh WSW 10.4 mph16.7 kmh 30.12 in1020.0 mb - 0.00 in0.0 mm 0.00 in0.0 mm
01:30 PM 62.1°F16.7°C 45.7°F7.6°C 55% 9.2 mph WSW14.8 kmh WSW 11.5 mph18.5 kmh 30.11 in1019.6 mb - 0.00 in0.0 mm 0.00 in0.0 mm
01:35 PM 62.1°F16.7°C 44.3°F6.8°C 52% 8.1 mph WSW13.0 kmh WSW 9.2 mph14.8 kmh 30.11 in1019.6 mb - 0.00 in0.0 mm 0.00 in0.0 mm
01:40 PM 62.4°F16.9°C 45.6°F7.6°C 54% 4.6 mph WSW7.4 kmh WSW 11.5 mph18.5 kmh 30.11 in1019.6 mb - 0.00 in0.0 mm 0.00 in0.0 mm
01:45 PM 63.0°F17.2°C 46.1°F7.8°C 54% 6.9 mph NW11.1 kmh NW 10.4 mph16.7 kmh 30.11 in1019.6 mb - 0.00 in0.0 mm 0.00 in0.0 mm
01:50 PM 63.0°F17.2°C 45.1°F7.3°C 52% 8.1 mph WSW13.0 kmh WSW 11.5 mph18.5 kmh 30.10 in1019.3 mb - 0.00 in0.0 mm 0.00 in0.0 mm
01:55 PM 62.9°F17.2°C 44.5°F6.9°C 51% 6.9 mph W11.1 kmh W 8.1 mph13.0 kmh 30.10 in1019.3 mb - 0.00 in0.0 mm 0.00 in0.0 mm
02:00 PM 63.2°F17.3°C 45.2°F7.3°C 52% 4.6 mph WNW7.4 kmh WNW 10.4 mph16.7 kmh 30.10 in1019.3 mb - 0.00 in0.0 mm 0.00 in0.0 mm
02:05 PM 63.5°F17.5°C 45.0°F7.2°C 51% 9.2 mph WSW14.8 kmh WSW 11.5 mph18.5 kmh 30.09 in1019.0 mb - 0.00 in0.0 mm 0.00 in0.0 mm
02:10 PM 63.6°F17.6°C 44.6°F7.0°C 50% 6.9 mph WSW11.1 kmh WSW 11.5 mph18.5 kmh 30.09 in1019.0 mb - 0.00 in0.0 mm 0.00 in0.0 mm
02:15 PM 63.8°F17.7°C 44.8°F7.1°C 50% 6.9 mph WSW11.1 kmh WSW 8.1 mph13.0 kmh 30.09 in1019.0 mb - 0.00 in0.0 mm 0.00 in0.0 mm
02:20 PM 64.1°F17.8°C 45.1°F7.3°C 50% 4.6 mph NW7.4 kmh NW 8.1 mph13.0 kmh 30.09 in1019.0 mb - 0.00 in0.0 mm 0.00 in0.0 mm
02:25 PM 64.4°F18.0°C 44.8°F7.1°C 49% 5.8 mph WSW9.3 kmh WSW 11.5 mph18.5 kmh 30.09 in1019.0 mb - 0.00 in0.0 mm 0.00 in0.0 mm
02:30 PM 64.6°F18.1°C 45.0°F7.2°C 49% 5.8 mph WSW9.3 kmh WSW 10.4 mph16.7 kmh 30.08 in1018.6 mb - 0.00 in0.0 mm 0.00 in0.0 mm
02:35 PM 64.7°F18.2°C 44.5°F6.9°C 48% 6.9 mph NW11.1 kmh NW 11.5 mph18.5 kmh 30.08 in1018.6 mb - 0.00 in0.0 mm 0.00 in0.0 mm
02:40 PM 64.8°F18.2°C 44.6°F7.0°C 48% 5.8 mph WSW9.3 kmh WSW 10.4 mph16.7 kmh 30.08 in1018.6 mb - 0.00 in0.0 mm 0.00 in0.0 mm
02:45 PM 65.0°F18.3°C 44.3°F6.8°C 47% 6.9 mph WNW11.1 kmh WNW 11.5 mph18.5 kmh 30.08 in1018.6 mb - 0.00 in0.0 mm 0.00 in0.0 mm
02:50 PM 64.9°F18.3°C 44.2°F6.8°C 47% 4.6 mph W7.4 kmh W 10.4 mph16.7 kmh 30.07 in1018.3 mb - 0.00 in0.0 mm 0.00 in0.0 mm
02:55 PM 64.9°F18.3°C 44.2°F6.8°C 47% 6.9 mph NW11.1 kmh NW 9.2 mph14.8 kmh 30.07 in1018.3 mb - 0.00 in0.0 mm 0.00 in0.0 mm
03:00 PM 65.0°F18.3°C 43.7°F6.5°C 46% 9.2 mph W14.8 kmh W 11.5 mph18.5 kmh 30.07 in1018.3 mb - 0.00 in0.0 mm 0.00 in0.0 mm
03:05 PM 64.9°F18.3°C 44.2°F6.8°C 47% 6.9 mph W11.1 kmh W 10.4 mph16.7 kmh 30.06 in1017.9 mb - 0.00 in0.0 mm 0.00 in0.0 mm
03:10 PM 64.9°F18.3°C 43.6°F6.4°C 46% 5.8 mph WSW9.3 kmh WSW 8.1 mph13.0 kmh 30.07 in1018.3 mb - 0.00 in0.0 mm 0.00 in0.0 mm
03:15 PM 65.0°F18.3°C 43.7°F6.5°C 46% 6.9 mph W11.1 kmh W 10.4 mph16.7 kmh 30.07 in1018.3 mb - 0.00 in0.0 mm 0.00 in0.0 mm
03:20 PM 65.0°F18.3°C 43.7°F6.5°C 46% 5.8 mph WNW9.3 kmh WNW 5.8 mph9.3 kmh 30.07 in1018.3 mb - 0.00 in0.0 mm 0.00 in0.0 mm
03:25 PM 65.4°F18.6°C 44.1°F6.7°C 46% 6.9 mph WSW11.1 kmh WSW 9.2 mph14.8 kmh 30.07 in1018.3 mb - 0.00 in0.0 mm 0.00 in0.0 mm
03:30 PM 65.5°F18.6°C 44.2°F6.8°C 46% 6.9 mph WSW11.1 kmh WSW 9.2 mph14.8 kmh 30.07 in1018.3 mb - 0.00 in0.0 mm 0.00 in0.0 mm
03:35 PM 65.8°F18.8°C 43.9°F6.6°C 45% 8.1 mph SW13.0 kmh SW 11.5 mph18.5 kmh 30.07 in1018.3 mb - 0.00 in0.0 mm 0.00 in0.0 mm
03:40 PM 65.9°F18.8°C 43.9°F6.6°C 45% 4.6 mph WSW7.4 kmh WSW 11.5 mph18.5 kmh 30.07 in1018.3 mb - 0.00 in0.0 mm 0.00 in0.0 mm
03:45 PM 65.9°F18.8°C 43.9°F6.6°C 45% 6.9 mph WSW11.1 kmh WSW 9.2 mph14.8 kmh 30.07 in1018.3 mb - 0.00 in0.0 mm 0.00 in0.0 mm
03:50 PM 65.9°F18.8°C 43.9°F6.6°C 45% 3.5 mph W5.6 kmh W 4.6 mph7.4 kmh 30.07 in1018.3 mb - 0.00 in0.0 mm 0.00 in0.0 mm
03:55 PM 65.8°F18.8°C 43.3°F6.3°C 44% 6.9 mph NW11.1 kmh NW 10.4 mph16.7 kmh 30.07 in1018.3 mb - 0.00 in0.0 mm 0.00 in0.0 mm
04:00 PM 65.6°F18.7°C 43.1°F6.2°C 44% 4.6 mph WSW7.4 kmh WSW 9.2 mph14.8 kmh 30.07 in1018.3 mb - 0.00 in0.0 mm 0.00 in0.0 mm
04:05 PM 65.9°F18.8°C 42.8°F6.0°C 43% 8.1 mph WSW13.0 kmh WSW 11.5 mph18.5 kmh 30.07 in1018.3 mb - 0.00 in0.0 mm 0.00 in0.0 mm
04:10 PM 65.9°F18.8°C 42.8°F6.0°C 43% 6.9 mph WSW11.1 kmh WSW 10.4 mph16.7 kmh 30.07 in1018.3 mb - 0.00 in0.0 mm 0.00 in0.0 mm
04:15 PM 65.9°F18.8°C 42.8°F6.0°C 43% 5.8 mph SW9.3 kmh SW 9.2 mph14.8 kmh 30.07 in1018.3 mb - 0.00 in0.0 mm 0.00 in0.0 mm
04:20 PM 66.0°F18.9°C 42.9°F6.1°C 43% 4.6 mph WSW7.4 kmh WSW 8.1 mph13.0 kmh 30.07 in1018.3 mb - 0.00 in0.0 mm 0.00 in0.0 mm
04:25 PM 65.9°F18.8°C 42.8°F6.0°C 43% 3.5 mph WSW5.6 kmh WSW 3.5 mph5.6 kmh 30.06 in1017.9 mb - 0.00 in0.0 mm 0.00 in0.0 mm
04:30 PM 66.1°F18.9°C 42.9°F6.1°C 43% 6.9 mph WSW11.1 kmh WSW 9.2 mph14.8 kmh 30.07 in1018.3 mb - 0.00 in0.0 mm 0.00 in0.0 mm
04:35 PM 65.8°F18.8°C 43.3°F6.3°C 44% 6.9 mph WSW11.1 kmh WSW 9.2 mph14.8 kmh 30.07 in1018.3 mb - 0.00 in0.0 mm 0.00 in0.0 mm
04:40 PM 65.4°F18.6°C 43.5°F6.4°C 45% 4.6 mph W7.4 kmh W 6.9 mph11.1 kmh 30.07 in1018.3 mb - 0.00 in0.0 mm 0.00 in0.0 mm
04:45 PM 65.1°F18.4°C 42.6°F5.9°C 44% 4.6 mph W7.4 kmh W 4.6 mph7.4 kmh 30.06 in1017.9 mb - 0.00 in0.0 mm 0.00 in0.0 mm
04:50 PM 65.1°F18.4°C 42.6°F5.9°C 44% 2.3 mph WNW3.7 kmh WNW 5.8 mph9.3 kmh 30.06 in1017.9 mb - 0.00 in0.0 mm 0.00 in0.0 mm
04:55 PM 65.3°F18.5°C 43.4°F6.3°C 45% 4.6 mph WSW7.4 kmh WSW 8.1 mph13.0 kmh 30.06 in1017.9 mb - 0.00 in0.0 mm 0.00 in0.0 mm
05:00 PM 65.3°F18.5°C 42.2°F5.7°C 43% 5.8 mph WSW9.3 kmh WSW 9.2 mph14.8 kmh 30.06 in1017.9 mb - 0.00 in0.0 mm 0.00 in0.0 mm
05:05 PM 65.3°F18.5°C 42.2°F5.7°C 43% 6.9 mph SW11.1 kmh SW 9.2 mph14.8 kmh 30.06 in1017.9 mb - 0.00 in0.0 mm 0.00 in0.0 mm
05:10 PM 65.2°F18.4°C 42.7°F5.9°C 44% 3.5 mph W5.6 kmh W 4.6 mph7.4 kmh 30.06 in1017.9 mb - 0.00 in0.0 mm 0.00 in0.0 mm
05:15 PM 65.0°F18.3°C 43.1°F6.2°C 45% 5.8 mph NW9.3 kmh NW 4.6 mph7.4 kmh 30.06 in1017.9 mb - 0.00 in0.0 mm 0.00 in0.0 mm
05:20 PM 64.9°F18.3°C 43.0°F6.1°C 45% 4.6 mph WNW7.4 kmh WNW 8.1 mph13.0 kmh 30.06 in1017.9 mb - 0.00 in0.0 mm 0.00 in0.0 mm
05:25 PM 64.7°F18.2°C 42.9°F6.1°C 45% 3.5 mph NW5.6 kmh NW 4.6 mph7.4 kmh 30.07 in1018.3 mb - 0.00 in0.0 mm 0.00 in0.0 mm
05:30 PM 64.6°F18.1°C 43.3°F6.3°C 46% 5.8 mph NW9.3 kmh NW 8.1 mph13.0 kmh 30.06 in1017.9 mb - 0.00 in0.0 mm 0.00 in0.0 mm
05:35 PM 64.4°F18.0°C 43.7°F6.5°C 47% 4.6 mph WNW7.4 kmh WNW 6.9 mph11.1 kmh 30.06 in1017.9 mb - 0.00 in0.0 mm 0.00 in0.0 mm
05:40 PM 64.3°F17.9°C 43.6°F6.4°C 47% 3.5 mph W5.6 kmh W 3.5 mph5.6 kmh 30.06 in1017.9 mb - 0.00 in0.0 mm 0.00 in0.0 mm
05:45 PM 64.1°F17.8°C 43.4°F6.3°C 47% 2.3 mph W3.7 kmh W 3.5 mph5.6 kmh 30.06 in1017.9 mb - 0.00 in0.0 mm 0.00 in0.0 mm
05:50 PM 64.1°F17.8°C 43.4°F6.3°C 47% 3.5 mph NW5.6 kmh NW 3.5 mph5.6 kmh 30.06 in1017.9 mb - 0.00 in0.0 mm 0.00 in0.0 mm
05:55 PM 64.0°F17.8°C 43.4°F6.3°C 47% 2.3 mph NW3.7 kmh NW 3.5 mph5.6 kmh 30.06 in1017.9 mb - 0.00 in0.0 mm 0.00 in0.0 mm
06:00 PM 63.9°F17.7°C 43.8°F6.6°C 48% 2.3 mph NW3.7 kmh NW 3.5 mph5.6 kmh 30.06 in1017.9 mb - 0.00 in0.0 mm 0.00 in0.0 mm
06:05 PM 63.7°F17.6°C 43.6°F6.4°C 48% 2.3 mph NW3.7 kmh NW 3.5 mph5.6 kmh 30.06 in1017.9 mb - 0.00 in0.0 mm 0.00 in0.0 mm
06:10 PM 63.5°F17.5°C 43.5°F6.4°C 48% 1.2 mph NW1.9 kmh NW 3.5 mph5.6 kmh 30.05 in1017.6 mb - 0.00 in0.0 mm 0.00 in0.0 mm
06:15 PM 63.3°F17.4°C 43.8°F6.6°C 49% 2.3 mph W3.7 kmh W 3.5 mph5.6 kmh 30.05 in1017.6 mb - 0.00 in0.0 mm 0.00 in0.0 mm
06:20 PM 63.1°F17.3°C 43.6°F6.4°C 49% 2.3 mph W3.7 kmh W 3.5 mph5.6 kmh 30.05 in1017.6 mb - 0.00 in0.0 mm 0.00 in0.0 mm
06:25 PM 62.9°F17.2°C 43.4°F6.3°C 49% 1.2 mph WSW1.9 kmh WSW 2.3 mph3.7 kmh 30.05 in1017.6 mb - 0.00 in0.0 mm 0.00 in0.0 mm
06:30 PM 62.7°F17.1°C 43.8°F6.6°C 50% 2.3 mph WSW3.7 kmh WSW 3.5 mph5.6 kmh 30.05 in1017.6 mb - 0.00 in0.0 mm 0.00 in0.0 mm
06:35 PM 62.5°F16.9°C 44.1°F6.7°C 51% 2.3 mph WSW3.7 kmh WSW 3.5 mph5.6 kmh 30.05 in1017.6 mb - 0.00 in0.0 mm 0.00 in0.0 mm
06:40 PM 62.1°F16.7°C 43.7°F6.5°C 51% 3.5 mph WSW5.6 kmh WSW 3.5 mph5.6 kmh 30.06 in1017.9 mb - 0.00 in0.0 mm 0.00 in0.0 mm
06:45 PM 61.7°F16.5°C 43.9°F6.6°C 52% 2.3 mph WSW3.7 kmh WSW 3.5 mph5.6 kmh 30.06 in1017.9 mb - 0.00 in0.0 mm 0.00 in0.0 mm
06:50 PM 61.4°F16.3°C 44.1°F6.7°C 53% 1.2 mph WSW1.9 kmh WSW 3.5 mph5.6 kmh 30.07 in1018.3 mb - 0.00 in0.0 mm 0.00 in0.0 mm
06:55 PM 61.1°F16.2°C 44.4°F6.9°C 54% 3.5 mph WSW5.6 kmh WSW 5.8 mph9.3 kmh 30.07 in1018.3 mb - 0.00 in0.0 mm 0.00 in0.0 mm
07:00 PM 60.7°F15.9°C 44.4°F6.9°C 55% 3.5 mph WSW5.6 kmh WSW 3.5 mph5.6 kmh 30.08 in1018.6 mb - 0.00 in0.0 mm 0.00 in0.0 mm
07:05 PM 60.4°F15.8°C 44.6°F7.0°C 56% 2.3 mph WSW3.7 kmh WSW 5.8 mph9.3 kmh 30.08 in1018.6 mb - 0.00 in0.0 mm 0.00 in0.0 mm
07:10 PM 60.1°F15.6°C 44.4°F6.9°C 56% 3.5 mph W5.6 kmh W 3.5 mph5.6 kmh 30.09 in1019.0 mb - 0.00 in0.0 mm 0.00 in0.0 mm
07:15 PM 59.8°F15.4°C 44.6°F7.0°C 57% 5.8 mph WSW9.3 kmh WSW 6.9 mph11.1 kmh 30.09 in1019.0 mb - 0.00 in0.0 mm 0.00 in0.0 mm
07:20 PM 59.5°F15.3°C 44.3°F6.8°C 57% 5.8 mph W9.3 kmh W 8.1 mph13.0 kmh 30.09 in1019.0 mb - 0.00 in0.0 mm 0.00 in0.0 mm
07:25 PM 59.3°F15.2°C 44.0°F6.7°C 57% 5.8 mph WNW9.3 kmh WNW 9.2 mph14.8 kmh 30.09 in1019.0 mb - 0.00 in0.0 mm 0.00 in0.0 mm
07:30 PM 59.1°F15.1°C 43.9°F6.6°C 57% 6.9 mph W11.1 kmh W 9.2 mph14.8 kmh 30.10 in1019.3 mb - 0.00 in0.0 mm 0.00 in0.0 mm
07:35 PM 59.0°F15.0°C 43.8°F6.6°C 57% 5.8 mph WNW9.3 kmh WNW 9.2 mph14.8 kmh 30.09 in1019.0 mb - 0.00 in0.0 mm 0.00 in0.0 mm
07:40 PM 58.7°F14.8°C 43.5°F6.4°C 57% 6.9 mph W11.1 kmh W 11.5 mph18.5 kmh 30.10 in1019.3 mb - 0.00 in0.0 mm 0.00 in0.0 mm
07:45 PM 58.5°F14.7°C 43.3°F6.3°C 57% 6.9 mph WSW11.1 kmh WSW 11.5 mph18.5 kmh 30.10 in1019.3 mb - 0.00 in0.0 mm 0.00 in0.0 mm
07:50 PM 58.2°F14.6°C 43.5°F6.4°C 58% 6.9 mph W11.1 kmh W 11.5 mph18.5 kmh 30.10 in1019.3 mb - 0.00 in0.0 mm 0.00 in0.0 mm
07:55 PM 57.9°F14.4°C 43.2°F6.2°C 58% 3.5 mph WNW5.6 kmh WNW 4.6 mph7.4 kmh 30.10 in1019.3 mb - 0.00 in0.0 mm 0.00 in0.0 mm
08:00 PM 57.6°F14.2°C 42.9°F6.1°C 58% 6.9 mph W11.1 kmh W 10.4 mph16.7 kmh 30.10 in1019.3 mb - 0.00 in0.0 mm 0.00 in0.0 mm
08:05 PM 57.4°F14.1°C 43.1°F6.2°C 59% 6.9 mph W11.1 kmh W 10.4 mph16.7 kmh 30.10 in1019.3 mb - 0.00 in0.0 mm 0.00 in0.0 mm
08:10 PM 57.1°F13.9°C 42.5°F5.8°C 58% 8.1 mph W13.0 kmh W 12.7 mph20.4 kmh 30.10 in1019.3 mb - 0.00 in0.0 mm 0.00 in0.0 mm
08:15 PM 56.9°F13.8°C 42.7°F5.9°C 59% 6.9 mph W11.1 kmh W 8.1 mph13.0 kmh 30.10 in1019.3 mb - 0.00 in0.0 mm 0.00 in0.0 mm
08:20 PM 56.7°F13.7°C 42.5°F5.8°C 59% 5.8 mph WNW9.3 kmh WNW 8.1 mph13.0 kmh 30.10 in1019.3 mb - 0.00 in0.0 mm 0.00 in0.0 mm
08:25 PM 56.5°F13.6°C 42.8°F6.0°C 60% 6.9 mph WSW11.1 kmh WSW 10.4 mph16.7 kmh 30.10 in1019.3 mb - 0.00 in0.0 mm 0.00 in0.0 mm
08:30 PM 56.3°F13.5°C 42.6°F5.9°C 60% 6.9 mph W11.1 kmh W 11.5 mph18.5 kmh 30.10 in1019.3 mb - 0.00 in0.0 mm 0.00 in0.0 mm
08:35 PM 56.2°F13.4°C 42.5°F5.8°C 60% 4.6 mph W7.4 kmh W 9.2 mph14.8 kmh 30.10 in1019.3 mb - 0.00 in0.0 mm 0.00 in0.0 mm
08:40 PM 56.0°F13.3°C 42.7°F5.9°C 61% 4.6 mph WSW7.4 kmh WSW 10.4 mph16.7 kmh 30.10 in1019.3 mb - 0.00 in0.0 mm 0.00 in0.0 mm
08:45 PM 55.7°F13.2°C 42.5°F5.8°C 61% 5.8 mph W9.3 kmh W 8.1 mph13.0 kmh 30.10 in1019.3 mb - 0.00 in0.0 mm 0.00 in0.0 mm
08:50 PM 55.5°F13.1°C 42.7°F5.9°C 62% 5.8 mph W9.3 kmh W 8.1 mph13.0 kmh 30.10 in1019.3 mb - 0.00 in0.0 mm 0.00 in0.0 mm
08:55 PM 55.2°F12.9°C 42.4°F5.8°C 62% 4.6 mph W7.4 kmh W 8.1 mph13.0 kmh 30.10 in1019.3 mb - 0.00 in0.0 mm 0.00 in0.0 mm
09:00 PM 55.0°F12.8°C 42.6°F5.9°C 63% 4.6 mph W7.4 kmh W 9.2 mph14.8 kmh 30.11 in1019.6 mb - 0.00 in0.0 mm 0.00 in0.0 mm
09:05 PM 54.9°F12.7°C 42.5°F5.8°C 63% 5.8 mph W9.3 kmh W 10.4 mph16.7 kmh 30.10 in1019.3 mb - 0.00 in0.0 mm 0.00 in0.0 mm
09:10 PM 54.8°F12.7°C 42.9°F6.1°C 64% 5.8 mph W9.3 kmh W 9.2 mph14.8 kmh 30.10 in1019.3 mb - 0.00 in0.0 mm 0.00 in0.0 mm
09:15 PM 54.6°F12.6°C 42.7°F5.9°C 64% 4.6 mph W7.4 kmh W 5.8 mph9.3 kmh 30.10 in1019.3 mb - 0.00 in0.0 mm 0.00 in0.0 mm
09:20 PM 54.4°F12.4°C 42.9°F6.1°C 65% 6.9 mph W11.1 kmh W 8.1 mph13.0 kmh 30.10 in1019.3 mb - 0.00 in0.0 mm 0.00 in0.0 mm
09:25 PM 54.1°F12.3°C 42.6°F5.9°C 65% 6.9 mph WSW11.1 kmh WSW 11.5 mph18.5 kmh 30.10 in1019.3 mb - 0.00 in0.0 mm 0.00 in0.0 mm
09:30 PM 53.9°F12.2°C 42.8°F6.0°C 66% 5.8 mph WSW9.3 kmh WSW 8.1 mph13.0 kmh 30.10 in1019.3 mb - 0.00 in0.0 mm 0.00 in0.0 mm
09:35 PM 53.6°F12.0°C 42.9°F6.1°C 67% 5.8 mph W9.3 kmh W 5.8 mph9.3 kmh 30.09 in1019.0 mb - 0.00 in0.0 mm 0.00 in0.0 mm
09:40 PM 53.4°F11.9°C 43.1°F6.2°C 68% 6.9 mph W11.1 kmh W 9.2 mph14.8 kmh 30.10 in1019.3 mb - 0.00 in0.0 mm 0.00 in0.0 mm
09:45 PM 53.1°F11.7°C 42.8°F6.0°C 68% 4.6 mph WSW7.4 kmh WSW 10.4 mph16.7 kmh 30.10 in1019.3 mb - 0.00 in0.0 mm 0.00 in0.0 mm
09:50 PM 53.0°F11.7°C 43.1°F6.2°C 69% 5.8 mph WSW9.3 kmh WSW 11.5 mph18.5 kmh 30.10 in1019.3 mb - 0.00 in0.0 mm 0.00 in0.0 mm
09:55 PM 52.8°F11.6°C 42.9°F6.1°C 69% 4.6 mph WSW7.4 kmh WSW 8.1 mph13.0 kmh 30.10 in1019.3 mb - 0.00 in0.0 mm 0.00 in0.0 mm
10:00 PM 52.7°F11.5°C 43.2°F6.2°C 70% 3.5 mph W5.6 kmh W 8.1 mph13.0 kmh 30.10 in1019.3 mb - 0.00 in0.0 mm 0.00 in0.0 mm
10:05 PM 52.6°F11.4°C 43.1°F6.2°C 70% 5.8 mph WSW9.3 kmh WSW 8.1 mph13.0 kmh 30.10 in1019.3 mb - 0.00 in0.0 mm 0.00 in0.0 mm
10:10 PM 52.4°F11.3°C 43.3°F6.3°C 71% 4.6 mph WSW7.4 kmh WSW 4.6 mph7.4 kmh 30.10 in1019.3 mb - 0.00 in0.0 mm 0.00 in0.0 mm
10:15 PM 52.3°F11.3°C 43.1°F6.2°C 71% 5.8 mph W9.3 kmh W 6.9 mph11.1 kmh 30.10 in1019.3 mb - 0.00 in0.0 mm 0.00 in0.0 mm
10:20 PM 52.1°F11.2°C 43.3°F6.3°C 72% 6.9 mph WSW11.1 kmh WSW 11.5 mph18.5 kmh 30.10 in1019.3 mb - 0.00 in0.0 mm 0.00 in0.0 mm
10:25 PM 52.0°F11.1°C 43.3°F6.3°C 72% 5.8 mph WSW9.3 kmh WSW 9.2 mph14.8 kmh 30.10 in1019.3 mb - 0.00 in0.0 mm 0.00 in0.0 mm
10:30 PM 52.0°F11.1°C 43.2°F6.2°C 72% 4.6 mph W7.4 kmh W 5.8 mph9.3 kmh 30.11 in1019.6 mb - 0.00 in0.0 mm 0.00 in0.0 mm
10:35 PM 52.0°F11.1°C 43.2°F6.2°C 72% 4.6 mph WSW7.4 kmh WSW 9.2 mph14.8 kmh 30.10 in1019.3 mb - 0.00 in0.0 mm 0.00 in0.0 mm
10:40 PM 51.9°F11.1°C 43.2°F6.2°C 72% 5.8 mph WSW9.3 kmh WSW 9.2 mph14.8 kmh 30.10 in1019.3 mb - 0.00 in0.0 mm 0.00 in0.0 mm
10:45 PM 51.9°F11.1°C 43.2°F6.2°C 72% 4.6 mph WSW7.4 kmh WSW 6.9 mph11.1 kmh 30.10 in1019.3 mb - 0.00 in0.0 mm 0.00 in0.0 mm
10:50 PM 51.8°F11.0°C 43.1°F6.2°C 72% 4.6 mph W7.4 kmh W 6.9 mph11.1 kmh 30.10 in1019.3 mb - 0.00 in0.0 mm 0.00 in0.0 mm
10:55 PM 51.8°F11.0°C 43.1°F6.2°C 72% 4.6 mph WSW7.4 kmh WSW 8.1 mph13.0 kmh 30.10 in1019.3 mb - 0.00 in0.0 mm 0.00 in0.0 mm
11:00 PM 51.8°F11.0°C 43.4°F6.3°C 73% 3.5 mph W5.6 kmh W 6.9 mph11.1 kmh 30.10 in1019.3 mb - 0.00 in0.0 mm 0.00 in0.0 mm
11:05 PM 51.7°F10.9°C 43.4°F6.3°C 73% 4.6 mph W7.4 kmh W 6.9 mph11.1 kmh 30.11 in1019.6 mb - 0.00 in0.0 mm 0.00 in0.0 mm
11:10 PM 51.7°F10.9°C 43.3°F6.3°C 73% 5.8 mph W9.3 kmh W 8.1 mph13.0 kmh 30.10 in1019.3 mb - 0.00 in0.0 mm 0.00 in0.0 mm
11:15 PM 51.7°F10.9°C 43.3°F6.3°C 73% 4.6 mph W7.4 kmh W 5.8 mph9.3 kmh 30.10 in1019.3 mb - 0.00 in0.0 mm 0.00 in0.0 mm
11:20 PM 51.7°F10.9°C 43.3°F6.3°C 73% 3.5 mph WNW5.6 kmh WNW 6.9 mph11.1 kmh 30.11 in1019.6 mb - 0.00 in0.0 mm 0.00 in0.0 mm
11:25 PM 51.7°F10.9°C 43.3°F6.3°C 73% 4.6 mph WNW7.4 kmh WNW 5.8 mph9.3 kmh 30.11 in1019.6 mb - 0.00 in0.0 mm 0.00 in0.0 mm
11:30 PM 51.6°F10.9°C 43.2°F6.2°C 73% 5.8 mph NW9.3 kmh NW 6.9 mph11.1 kmh 30.11 in1019.6 mb - 0.00 in0.0 mm 0.00 in0.0 mm
11:35 PM 51.5°F10.8°C 43.1°F6.2°C 73% 4.6 mph NNW7.4 kmh NNW 5.8 mph9.3 kmh 30.11 in1019.6 mb - 0.00 in0.0 mm 0.00 in0.0 mm
11:40 PM 51.4°F10.8°C 43.0°F6.1°C 73% 3.5 mph NW5.6 kmh NW 6.9 mph11.1 kmh 30.11 in1019.6 mb - 0.00 in0.0 mm 0.00 in0.0 mm
11:45 PM 51.3°F10.7°C 43.3°F6.3°C 74% 3.5 mph NW5.6 kmh NW 5.8 mph9.3 kmh 30.12 in1020.0 mb - 0.00 in0.0 mm 0.00 in0.0 mm
11:50 PM 51.2°F10.7°C 43.2°F6.2°C 74% 3.5 mph NW5.6 kmh NW 6.9 mph11.1 kmh 30.11 in1019.6 mb - 0.00 in0.0 mm 0.00 in0.0 mm
11:55 PM 51.1°F10.6°C 43.1°F6.2°C 74% 4.6 mph NW7.4 kmh NW 8.1 mph13.0 kmh 30.11 in1019.6 mb - 0.00 in0.0 mm 0.00 in0.0 mm